Terminal Aerodrome Forecast
Issued by NWS

Home | Current Version | Previous Version | Text Only | Print | Product List | Glossary On
Versions: 1 2 3 4 5 6 7 8 9 10 11 12 13 14 15 16 17
479
FTUS42 KMLB 241356 AAA
TAFSFB
TAF AMD
KSFB 241356Z 2414/2512 01008KT P6SM SCT006 BKN010
      TEMPO 2414/2415 BKN006
     FM241600 04009KT P6SM SCT035
     FM250000 02004KT P6SM FEW015
     FM250800 00000KT 2SM BR SCT003=

USA.gov is the U.S. government's official web portal to all federal, state and local government web resources and services.